sensor_id;sensor_type;location;lat;lon;timestamp;P1;durP1;ratioP1;P2;durP2;ratioP2
78122;SDS011;67376;44.802;10.332;2023-06-14T00:02:11;2.90;;;2.17;;
78122;SDS011;67376;44.802;10.332;2023-06-14T00:04:37;3.15;;;1.98;;
78122;SDS011;67376;44.802;10.332;2023-06-14T00:07:04;5.70;;;2.25;;
78122;SDS011;67376;44.802;10.332;2023-06-14T00:09:33;3.08;;;2.00;;
78122;SDS011;67376;44.802;10.332;2023-06-14T00:11:58;5.00;;;2.03;;
78122;SDS011;67376;44.802;10.332;2023-06-14T00:14:24;6.97;;;2.65;;
78122;SDS011;67376;44.802;10.332;2023-06-14T00:16:49;4.43;;;2.05;;
78122;SDS011;67376;44.802;10.332;2023-06-14T00:19:17;5.10;;;2.97;;
78122;SDS011;67376;44.802;10.332;2023-06-14T00:21:42;3.50;;;2.55;;
78122;SDS011;67376;44.802;10.332;2023-06-14T00:24:08;7.78;;;2.30;;
78122;SDS011;67376;44.802;10.332;2023-06-14T00:26:33;5.18;;;2.88;;
78122;SDS011;67376;44.802;10.332;2023-06-14T00:28:59;5.47;;;2.08;;
78122;SDS011;67376;44.802;10.332;2023-06-14T00:31:24;6.97;;;2.60;;
78122;SDS011;67376;44.802;10.332;2023-06-14T00:33:50;5.70;;;2.40;;
78122;SDS011;67376;44.802;10.332;2023-06-14T00:36:15;6.55;;;3.67;;
78122;SDS011;67376;44.802;10.332;2023-06-14T00:38:41;5.05;;;2.30;;
78122;SDS011;67376;44.802;10.332;2023-06-14T00:41:06;6.07;;;2.10;;
78122;SDS011;67376;44.802;10.332;2023-06-14T00:43:32;62.42;;;57.35;;
78122;SDS011;67376;44.802;10.332;2023-06-14T00:45:59;157.07;;;106.75;;
78122;SDS011;67376;44.802;10.332;2023-06-14T00:48:25;237.70;;;128.40;;
78122;SDS011;67376;44.802;10.332;2023-06-14T00:50:50;236.00;;;127.55;;
78122;SDS011;67376;44.802;10.332;2023-06-14T00:53:17;462.42;;;199.93;;
78122;SDS011;67376;44.802;10.332;2023-06-14T00:55:45;481.63;;;210.45;;
78122;SDS011;67376;44.802;10.332;2023-06-14T00:58:11;7.30;;;3.40;;
78122;SDS011;67376;44.802;10.332;2023-06-14T01:00:37;4.15;;;2.38;;
78122;SDS011;67376;44.802;10.332;2023-06-14T01:03:02;3.58;;;2.30;;
78122;SDS011;67376;44.802;10.332;2023-06-14T01:05:28;8.73;;;2.30;;
78122;SDS011;67376;44.802;10.332;2023-06-14T01:11:16;4.65;;;2.10;;
78122;SDS011;67376;44.802;10.332;2023-06-14T01:13:47;2.45;;;1.90;;
78122;SDS011;67376;44.802;10.332;2023-06-14T01:16:13;27.30;;;25.42;;
78122;SDS011;67376;44.802;10.332;2023-06-14T01:18:39;439.17;;;203.43;;
78122;SDS011;67376;44.802;10.332;2023-06-14T01:21:06;120.00;;;60.85;;
78122;SDS011;67376;44.802;10.332;2023-06-14T01:23:45;586.20;;;295.63;;
78122;SDS011;67376;44.802;10.332;2023-06-14T01:26:13;838.20;;;402.55;;
78122;SDS011;67376;44.802;10.332;2023-06-14T01:28:40;868.25;;;381.08;;
78122;SDS011;67376;44.802;10.332;2023-06-14T01:31:06;833.83;;;358.00;;
78122;SDS011;67376;44.802;10.332;2023-06-14T01:33:32;829.58;;;356.50;;
78122;SDS011;67376;44.802;10.332;2023-06-14T01:36:00;860.80;;;367.05;;
78122;SDS011;67376;44.802;10.332;2023-06-14T01:38:28;893.95;;;383.48;;
78122;SDS011;67376;44.802;10.332;2023-06-14T01:40:55;921.55;;;393.13;;
78122;SDS011;67376;44.802;10.332;2023-06-14T01:43:23;965.83;;;408.58;;
78122;SDS011;67376;44.802;10.332;2023-06-14T01:45:49;997.67;;;429.02;;
78122;SDS011;67376;44.802;10.332;2023-06-14T01:48:16;1034.40;;;446.90;;
78122;SDS011;67376;44.802;10.332;2023-06-14T01:50:42;1040.40;;;455.95;;
78122;SDS011;67376;44.802;10.332;2023-06-14T01:53:08;657.65;;;310.27;;
78122;SDS011;67376;44.802;10.332;2023-06-14T01:55:34;1029.50;;;472.50;;
78122;SDS011;67376;44.802;10.332;2023-06-14T01:58:02;1181.97;;;525.80;;
78122;SDS011;67376;44.802;10.332;2023-06-14T02:00:28;264.50;;;124.65;;
78122;SDS011;67376;44.802;10.332;2023-06-14T02:02:54;344.20;;;154.65;;
78122;SDS011;67376;44.802;10.332;2023-06-14T02:05:20;563.47;;;257.98;;
78122;SDS011;67376;44.802;10.332;2023-06-14T02:07:46;419.60;;;174.80;;
78122;SDS011;67376;44.802;10.332;2023-06-14T02:10:12;3.80;;;2.20;;
78122;SDS011;67376;44.802;10.332;2023-06-14T02:12:38;4.07;;;2.20;;
78122;SDS011;67376;44.802;10.332;2023-06-14T02:15:03;1.92;;;1.50;;
78122;SDS011;67376;44.802;10.332;2023-06-14T02:17:29;2.33;;;1.77;;
78122;SDS011;67376;44.802;10.332;2023-06-14T02:19:54;4.18;;;2.60;;
78122;SDS011;67376;44.802;10.332;2023-06-14T02:22:22;4.28;;;1.90;;
78122;SDS011;67376;44.802;10.332;2023-06-14T02:24:48;3.17;;;1.52;;
78122;SDS011;67376;44.802;10.332;2023-06-14T02:27:13;3.72;;;2.28;;
78122;SDS011;67376;44.802;10.332;2023-06-14T02:29:39;2.50;;;1.73;;
78122;SDS011;67376;44.802;10.332;2023-06-14T02:32:05;3.65;;;1.60;;
78122;SDS011;67376;44.802;10.332;2023-06-14T02:34:32;2.05;;;1.60;;
78122;SDS011;67376;44.802;10.332;2023-06-14T02:36:58;3.35;;;1.95;;
78122;SDS011;67376;44.802;10.332;2023-06-14T02:39:24;5.03;;;1.95;;
78122;SDS011;67376;44.802;10.332;2023-06-14T02:41:49;4.43;;;1.73;;
78122;SDS011;67376;44.802;10.332;2023-06-14T02:44:17;2.15;;;1.60;;
78122;SDS011;67376;44.802;10.332;2023-06-14T02:46:43;5.95;;;1.90;;
78122;SDS011;67376;44.802;10.332;2023-06-14T02:49:08;5.78;;;1.88;;
78122;SDS011;67376;44.802;10.332;2023-06-14T02:51:34;4.80;;;2.28;;
78122;SDS011;67376;44.802;10.332;2023-06-14T02:54:00;4.50;;;2.25;;
78122;SDS011;67376;44.802;10.332;2023-06-14T02:56:25;5.50;;;2.10;;
78122;SDS011;67376;44.802;10.332;2023-06-14T02:58:51;134.32;;;84.70;;
78122;SDS011;67376;44.802;10.332;2023-06-14T03:01:16;481.02;;;218.73;;
78122;SDS011;67376;44.802;10.332;2023-06-14T03:03:43;515.03;;;237.18;;
78122;SDS011;67376;44.802;10.332;2023-06-14T03:06:08;490.67;;;219.60;;
78122;SDS011;67376;44.802;10.332;2023-06-14T03:08:34;538.30;;;246.57;;
78122;SDS011;67376;44.802;10.332;2023-06-14T03:11:04;87.80;;;77.03;;
78122;SDS011;67376;44.802;10.332;2023-06-14T03:13:30;545.90;;;255.85;;
78122;SDS011;67376;44.802;10.332;2023-06-14T03:15:57;752.38;;;356.88;;
78122;SDS011;67376;44.802;10.332;2023-06-14T03:18:23;824.75;;;392.10;;
78122;SDS011;67376;44.802;10.332;2023-06-14T03:20:48;875.90;;;415.52;;
78122;SDS011;67376;44.802;10.332;2023-06-14T03:23:14;968.00;;;465.23;;
78122;SDS011;67376;44.802;10.332;2023-06-14T03:25:39;1004.17;;;485.92;;
78122;SDS011;67376;44.802;10.332;2023-06-14T03:28:07;999.05;;;483.33;;
78122;SDS011;67376;44.802;10.332;2023-06-14T03:30:32;1021.05;;;495.42;;
78122;SDS011;67376;44.802;10.332;2023-06-14T03:32:58;1026.20;;;500.38;;
78122;SDS011;67376;44.802;10.332;2023-06-14T03:35:26;1061.85;;;526.25;;
78122;SDS011;67376;44.802;10.332;2023-06-14T03:37:51;1104.55;;;550.30;;
78122;SDS011;67376;44.802;10.332;2023-06-14T03:40:17;1130.70;;;561.70;;
78122;SDS011;67376;44.802;10.332;2023-06-14T03:42:43;1168.55;;;579.97;;
78122;SDS011;67376;44.802;10.332;2023-06-14T03:45:09;1194.45;;;587.58;;
78122;SDS011;67376;44.802;10.332;2023-06-14T03:47:35;1252.90;;;611.65;;
78122;SDS011;67376;44.802;10.332;2023-06-14T03:50:03;1329.07;;;631.47;;
78122;SDS011;67376;44.802;10.332;2023-06-14T03:52:29;1335.10;;;634.45;;
78122;SDS011;67376;44.802;10.332;2023-06-14T03:54:56;1356.18;;;639.65;;
78122;SDS011;67376;44.802;10.332;2023-06-14T03:57:23;730.72;;;319.65;;
78122;SDS011;67376;44.802;10.332;2023-06-14T03:59:48;621.45;;;272.83;;
78122;SDS011;67376;44.802;10.332;2023-06-14T04:02:14;772.30;;;344.45;;
78122;SDS011;67376;44.802;10.332;2023-06-14T04:04:41;782.50;;;341.50;;
78122;SDS011;67376;44.802;10.332;2023-06-14T04:07:09;795.22;;;350.63;;
78122;SDS011;67376;44.802;10.332;2023-06-14T04:09:36;1128.28;;;538.58;;
78122;SDS011;67376;44.802;10.332;2023-06-14T04:12:02;1274.78;;;623.67;;
78122;SDS011;67376;44.802;10.332;2023-06-14T04:14:28;1291.65;;;635.97;;
78122;SDS011;67376;44.802;10.332;2023-06-14T04:16:53;1403.82;;;677.20;;
78122;SDS011;67376;44.802;10.332;2023-06-14T04:19:19;1445.32;;;714.20;;
78122;SDS011;67376;44.802;10.332;2023-06-14T04:21:44;1688.18;;;632.55;;
78122;SDS011;67376;44.802;10.332;2023-06-14T04:24:09;1683.07;;;662.80;;
78122;SDS011;67376;44.802;10.332;2023-06-14T04:26:42;1757.00;;;661.03;;
78122;SDS011;67376;44.802;10.332;2023-06-14T04:29:12;1785.38;;;711.30;;
78122;SDS011;67376;44.802;10.332;2023-06-14T04:31:41;1789.30;;;736.40;;
78122;SDS011;67376;44.802;10.332;2023-06-14T04:34:10;1806.70;;;707.42;;
78122;SDS011;67376;44.802;10.332;2023-06-14T04:36:41;1814.22;;;699.45;;
78122;SDS011;67376;44.802;10.332;2023-06-14T04:39:14;1867.18;;;703.00;;
78122;SDS011;67376;44.802;10.332;2023-06-14T04:41:40;1879.60;;;722.00;;
78122;SDS011;67376;44.802;10.332;2023-06-14T04:44:06;1885.13;;;740.00;;
78122;SDS011;67376;44.802;10.332;2023-06-14T04:46:32;1890.10;;;773.33;;
78122;SDS011;67376;44.802;10.332;2023-06-14T04:48:57;1967.57;;;826.42;;
78122;SDS011;67376;44.802;10.332;2023-06-14T04:51:27;1235.38;;;606.53;;
78122;SDS011;67376;44.802;10.332;2023-06-14T04:53:55;1488.88;;;658.10;;
78122;SDS011;67376;44.802;10.332;2023-06-14T04:56:22;6.18;;;2.22;;
78122;SDS011;67376;44.802;10.332;2023-06-14T04:58:48;3.50;;;2.05;;
78122;SDS011;67376;44.802;10.332;2023-06-14T05:01:13;4.25;;;2.30;;
78122;SDS011;67376;44.802;10.332;2023-06-14T05:03:39;3.50;;;2.40;;
78122;SDS011;67376;44.802;10.332;2023-06-14T05:06:04;5.20;;;2.88;;
78122;SDS011;67376;44.802;10.332;2023-06-14T05:08:31;3.53;;;2.65;;
78122;SDS011;67376;44.802;10.332;2023-06-14T05:10:56;316.17;;;155.65;;
78122;SDS011;67376;44.802;10.332;2023-06-14T05:13:21;1112.97;;;558.70;;
78122;SDS011;67376;44.802;10.332;2023-06-14T05:15:47;1371.22;;;687.08;;
78122;SDS011;67376;44.802;10.332;2023-06-14T05:18:13;1487.95;;;711.90;;
78122;SDS011;67376;44.802;10.332;2023-06-14T05:20:40;1595.55;;;764.60;;
78122;SDS011;67376;44.802;10.332;2023-06-14T05:23:09;1450.20;;;716.03;;
78122;SDS011;67376;44.802;10.332;2023-06-14T05:25:39;1645.78;;;790.95;;
78122;SDS011;67376;44.802;10.332;2023-06-14T05:28:06;1681.07;;;874.67;;
78122;SDS011;67376;44.802;10.332;2023-06-14T05:30:31;1827.97;;;974.78;;
78122;SDS011;67376;44.802;10.332;2023-06-14T05:32:58;1822.53;;;818.55;;
78122;SDS011;67376;44.802;10.332;2023-06-14T05:35:23;625.80;;;270.33;;
78122;SDS011;67376;44.802;10.332;2023-06-14T05:37:51;1183.38;;;532.42;;
78122;SDS011;67376;44.802;10.332;2023-06-14T05:40:17;1344.13;;;614.70;;
78122;SDS011;67376;44.802;10.332;2023-06-14T05:42:42;1304.72;;;600.50;;
78122;SDS011;67376;44.802;10.332;2023-06-14T05:45:08;3.78;;;2.25;;
78122;SDS011;67376;44.802;10.332;2023-06-14T05:47:33;529.10;;;239.52;;
78122;SDS011;67376;44.802;10.332;2023-06-14T05:49:59;950.20;;;450.98;;
78122;SDS011;67376;44.802;10.332;2023-06-14T05:52:24;1114.72;;;546.78;;
78122;SDS011;67376;44.802;10.332;2023-06-14T05:54:50;1214.68;;;598.78;;
78122;SDS011;67376;44.802;10.332;2023-06-14T05:57:15;1369.10;;;681.85;;
78122;SDS011;67376;44.802;10.332;2023-06-14T05:59:41;1435.18;;;723.67;;
78122;SDS011;67376;44.802;10.332;2023-06-14T06:02:06;1494.88;;;733.30;;
78122;SDS011;67376;44.802;10.332;2023-06-14T06:04:32;1608.32;;;773.20;;
78122;SDS011;67376;44.802;10.332;2023-06-14T06:06:57;1637.45;;;779.47;;
78122;SDS011;67376;44.802;10.332;2023-06-14T06:09:22;1718.72;;;828.80;;
78122;SDS011;67376;44.802;10.332;2023-06-14T06:11:48;1670.78;;;750.97;;
78122;SDS011;67376;44.802;10.332;2023-06-14T06:14:13;1693.57;;;743.00;;
78122;SDS011;67376;44.802;10.332;2023-06-14T06:16:38;1705.35;;;777.30;;
78122;SDS011;67376;44.802;10.332;2023-06-14T06:19:04;1717.85;;;780.10;;
78122;SDS011;67376;44.802;10.332;2023-06-14T06:21:29;1764.97;;;800.10;;
78122;SDS011;67376;44.802;10.332;2023-06-14T06:23:55;1763.15;;;834.00;;
78122;SDS011;67376;44.802;10.332;2023-06-14T06:26:21;1714.50;;;790.45;;
78122;SDS011;67376;44.802;10.332;2023-06-14T06:28:47;1750.13;;;829.25;;
78122;SDS011;67376;44.802;10.332;2023-06-14T06:31:12;1808.15;;;844.97;;
78122;SDS011;67376;44.802;10.332;2023-06-14T06:33:38;1857.13;;;896.92;;
78122;SDS011;67376;44.802;10.332;2023-06-14T06:36:04;1848.32;;;890.75;;
78122;SDS011;67376;44.802;10.332;2023-06-14T06:38:30;1884.60;;;909.67;;
78122;SDS011;67376;44.802;10.332;2023-06-14T06:40:55;1877.15;;;907.55;;
78122;SDS011;67376;44.802;10.332;2023-06-14T06:43:21;1898.75;;;910.30;;
78122;SDS011;67376;44.802;10.332;2023-06-14T06:45:47;1922.15;;;915.10;;
78122;SDS011;67376;44.802;10.332;2023-06-14T06:48:13;1945.90;;;911.08;;
78122;SDS011;67376;44.802;10.332;2023-06-14T06:50:38;1903.72;;;911.28;;
78122;SDS011;67376;44.802;10.332;2023-06-14T06:53:04;1980.40;;;959.17;;
78122;SDS011;67376;44.802;10.332;2023-06-14T06:55:30;1968.13;;;968.20;;
78122;SDS011;67376;44.802;10.332;2023-06-14T06:57:55;1999.90;;;999.90;;
78122;SDS011;67376;44.802;10.332;2023-06-14T07:00:21;1957.38;;;966.60;;
78122;SDS011;67376;44.802;10.332;2023-06-14T07:02:46;1958.15;;;986.35;;
78122;SDS011;67376;44.802;10.332;2023-06-14T07:05:12;1594.32;;;749.72;;
78122;SDS011;67376;44.802;10.332;2023-06-14T07:07:38;1696.20;;;816.17;;
78122;SDS011;67376;44.802;10.332;2023-06-14T07:10:04;1789.57;;;971.58;;
78122;SDS011;67376;44.802;10.332;2023-06-14T07:12:33;1935.95;;;999.90;;
78122;SDS011;67376;44.802;10.332;2023-06-14T07:15:00;1940.88;;;999.90;;
78122;SDS011;67376;44.802;10.332;2023-06-14T07:17:26;1963.63;;;999.90;;
78122;SDS011;67376;44.802;10.332;2023-06-14T07:19:52;1946.57;;;999.90;;
78122;SDS011;67376;44.802;10.332;2023-06-14T07:22:18;556.63;;;249.25;;
78122;SDS011;67376;44.802;10.332;2023-06-14T07:24:44;1290.20;;;705.20;;
78122;SDS011;67376;44.802;10.332;2023-06-14T07:27:09;1563.72;;;821.05;;
78122;SDS011;67376;44.802;10.332;2023-06-14T07:29:35;1798.43;;;901.65;;
78122;SDS011;67376;44.802;10.332;2023-06-14T07:32:01;1861.55;;;999.90;;
78122;SDS011;67376;44.802;10.332;2023-06-14T07:34:26;1900.13;;;999.90;;
78122;SDS011;67376;44.802;10.332;2023-06-14T07:36:52;1968.38;;;999.90;;
78122;SDS011;67376;44.802;10.332;2023-06-14T07:39:19;1978.68;;;999.90;;
78122;SDS011;67376;44.802;10.332;2023-06-14T07:41:44;1979.53;;;999.90;;
78122;SDS011;67376;44.802;10.332;2023-06-14T07:44:10;1930.32;;;999.90;;
78122;SDS011;67376;44.802;10.332;2023-06-14T07:46:37;1973.85;;;999.90;;
78122;SDS011;67376;44.802;10.332;2023-06-14T07:49:03;1933.63;;;999.90;;
78122;SDS011;67376;44.802;10.332;2023-06-14T07:51:28;1903.03;;;999.90;;
78122;SDS011;67376;44.802;10.332;2023-06-14T07:53:54;1832.30;;;999.90;;
78122;SDS011;67376;44.802;10.332;2023-06-14T07:56:20;1876.57;;;999.90;;
78122;SDS011;67376;44.802;10.332;2023-06-14T07:58:45;1855.18;;;999.90;;
78122;SDS011;67376;44.802;10.332;2023-06-14T08:01:10;1851.65;;;999.90;;
78122;SDS011;67376;44.802;10.332;2023-06-14T08:03:37;1826.63;;;997.17;;
78122;SDS011;67376;44.802;10.332;2023-06-14T08:06:02;1890.03;;;812.80;;
78122;SDS011;67376;44.802;10.332;2023-06-14T08:08:29;1728.05;;;999.90;;
78122;SDS011;67376;44.802;10.332;2023-06-14T08:10:55;563.15;;;149.25;;
78122;SDS011;67376;44.802;10.332;2023-06-14T08:13:20;555.28;;;155.27;;
78122;SDS011;67376;44.802;10.332;2023-06-14T08:15:46;557.17;;;161.20;;
78122;SDS011;67376;44.802;10.332;2023-06-14T08:18:11;552.22;;;162.98;;
78122;SDS011;67376;44.802;10.332;2023-06-14T08:20:37;549.88;;;163.80;;
78122;SDS011;67376;44.802;10.332;2023-06-14T08:23:03;548.00;;;165.68;;
78122;SDS011;67376;44.802;10.332;2023-06-14T08:25:29;547.75;;;171.07;;
78122;SDS011;67376;44.802;10.332;2023-06-14T08:27:55;545.33;;;170.48;;
78122;SDS011;67376;44.802;10.332;2023-06-14T08:30:21;543.53;;;174.23;;
78122;SDS011;67376;44.802;10.332;2023-06-14T08:32:47;541.05;;;185.07;;
78122;SDS011;67376;44.802;10.332;2023-06-14T08:35:12;538.58;;;188.68;;
78122;SDS011;67376;44.802;10.332;2023-06-14T08:37:41;536.40;;;193.07;;
78122;SDS011;67376;44.802;10.332;2023-06-14T08:40:12;534.00;;;202.25;;
78122;SDS011;67376;44.802;10.332;2023-06-14T08:42:52;537.25;;;191.43;;
78122;SDS011;67376;44.802;10.332;2023-06-14T08:45:23;529.03;;;204.98;;
78122;SDS011;67376;44.802;10.332;2023-06-14T08:47:50;529.13;;;208.43;;
78122;SDS011;67376;44.802;10.332;2023-06-14T08:50:18;521.35;;;227.32;;
78122;SDS011;67376;44.802;10.332;2023-06-14T08:52:45;519.75;;;233.82;;
78122;SDS011;67376;44.802;10.332;2023-06-14T08:55:14;515.28;;;237.48;;
78122;SDS011;67376;44.802;10.332;2023-06-14T08:57:42;513.60;;;240.07;;
78122;SDS011;67376;44.802;10.332;2023-06-14T09:00:09;511.02;;;246.38;;
78122;SDS011;67376;44.802;10.332;2023-06-14T09:02:38;507.20;;;248.85;;
78122;SDS011;67376;44.802;10.332;2023-06-14T09:05:11;491.83;;;237.43;;
78122;SDS011;67376;44.802;10.332;2023-06-14T09:07:41;488.13;;;227.85;;
78122;SDS011;67376;44.802;10.332;2023-06-14T09:10:10;481.65;;;216.18;;
78122;SDS011;67376;44.802;10.332;2023-06-14T09:12:37;467.63;;;196.07;;
78122;SDS011;67376;44.802;10.332;2023-06-14T09:15:04;453.80;;;176.35;;
78122;SDS011;67376;44.802;10.332;2023-06-14T09:17:37;419.25;;;121.38;;
78122;SDS011;67376;44.802;10.332;2023-06-14T09:20:03;411.17;;;111.07;;
78122;SDS011;67376;44.802;10.332;2023-06-14T09:22:42;397.83;;;96.88;;
78122;SDS011;67376;44.802;10.332;2023-06-14T09:25:08;391.17;;;91.63;;
78122;SDS011;67376;44.802;10.332;2023-06-14T09:27:33;396.50;;;95.78;;
78122;SDS011;67376;44.802;10.332;2023-06-14T09:30:00;389.38;;;89.22;;
78122;SDS011;67376;44.802;10.332;2023-06-14T09:32:29;392.17;;;93.20;;
78122;SDS011;67376;44.802;10.332;2023-06-14T09:34:55;377.88;;;78.25;;
78122;SDS011;67376;44.802;10.332;2023-06-14T09:37:27;369.73;;;70.95;;
78122;SDS011;67376;44.802;10.332;2023-06-14T09:39:54;374.92;;;73.57;;
78122;SDS011;67376;44.802;10.332;2023-06-14T09:42:20;365.52;;;65.95;;
78122;SDS011;67376;44.802;10.332;2023-06-14T09:44:46;374.90;;;75.60;;
78122;SDS011;67376;44.802;10.332;2023-06-14T09:47:13;375.30;;;74.57;;
78122;SDS011;67376;44.802;10.332;2023-06-14T09:49:42;372.65;;;72.00;;
78122;SDS011;67376;44.802;10.332;2023-06-14T09:52:17;369.08;;;68.78;;
78122;SDS011;67376;44.802;10.332;2023-06-14T09:54:44;366.75;;;66.97;;
78122;SDS011;67376;44.802;10.332;2023-06-14T09:57:12;362.52;;;64.50;;
78122;SDS011;67376;44.802;10.332;2023-06-14T09:59:43;360.15;;;63.03;;
78122;SDS011;67376;44.802;10.332;2023-06-14T10:02:12;359.10;;;62.30;;
78122;SDS011;67376;44.802;10.332;2023-06-14T10:04:48;357.10;;;61.35;;
78122;SDS011;67376;44.802;10.332;2023-06-14T10:07:19;355.45;;;60.47;;
78122;SDS011;67376;44.802;10.332;2023-06-14T10:09:46;351.90;;;58.00;;
78122;SDS011;67376;44.802;10.332;2023-06-14T10:12:17;351.55;;;57.97;;
78122;SDS011;67376;44.802;10.332;2023-06-14T10:14:49;347.70;;;56.22;;
78122;SDS011;67376;44.802;10.332;2023-06-14T10:17:23;345.40;;;54.47;;
78122;SDS011;67376;44.802;10.332;2023-06-14T10:20:28;344.30;;;53.67;;
78122;SDS011;67376;44.802;10.332;2023-06-14T10:25:33;339.55;;;52.20;;
78122;SDS011;67376;44.802;10.332;2023-06-14T10:31:01;339.95;;;51.65;;
78122;SDS011;67376;44.802;10.332;2023-06-14T10:33:50;338.42;;;51.83;;
78122;SDS011;67376;44.802;10.332;2023-06-14T10:39:14;342.52;;;53.55;;
78122;SDS011;67376;44.802;10.332;2023-06-14T10:41:50;339.13;;;51.45;;
78122;SDS011;67376;44.802;10.332;2023-06-14T10:46:46;342.50;;;53.15;;
78122;SDS011;67376;44.802;10.332;2023-06-14T10:49:16;343.35;;;53.30;;
78122;SDS011;67376;44.802;10.332;2023-06-14T10:51:44;342.42;;;53.22;;
78122;SDS011;67376;44.802;10.332;2023-06-14T10:54:15;341.17;;;52.22;;
78122;SDS011;67376;44.802;10.332;2023-06-14T10:56:52;338.42;;;51.53;;
78122;SDS011;67376;44.802;10.332;2023-06-14T10:59:19;338.77;;;51.63;;
78122;SDS011;67376;44.802;10.332;2023-06-14T11:04:53;333.08;;;49.17;;
78122;SDS011;67376;44.802;10.332;2023-06-14T11:08:21;334.92;;;49.55;;
78122;SDS011;67376;44.802;10.332;2023-06-14T11:12:51;336.40;;;50.72;;
78122;SDS011;67376;44.802;10.332;2023-06-14T11:15:19;333.58;;;49.50;;
78122;SDS011;67376;44.802;10.332;2023-06-14T11:17:51;334.38;;;50.10;;
78122;SDS011;67376;44.802;10.332;2023-06-14T11:20:18;332.77;;;49.80;;
78122;SDS011;67376;44.802;10.332;2023-06-14T11:22:44;332.40;;;49.47;;
78122;SDS011;67376;44.802;10.332;2023-06-14T11:25:13;333.60;;;49.92;;
78122;SDS011;67376;44.802;10.332;2023-06-14T11:27:39;329.88;;;48.70;;
78122;SDS011;67376;44.802;10.332;2023-06-14T11:30:06;328.02;;;48.88;;
78122;SDS011;67376;44.802;10.332;2023-06-14T11:32:32;326.52;;;48.05;;
78122;SDS011;67376;44.802;10.332;2023-06-14T11:34:58;323.52;;;48.15;;
78122;SDS011;67376;44.802;10.332;2023-06-14T11:37:25;321.42;;;47.72;;
78122;SDS011;67376;44.802;10.332;2023-06-14T11:39:55;322.10;;;48.50;;
78122;SDS011;67376;44.802;10.332;2023-06-14T11:42:21;321.45;;;48.15;;
78122;SDS011;67376;44.802;10.332;2023-06-14T11:44:47;321.95;;;48.05;;
78122;SDS011;67376;44.802;10.332;2023-06-14T11:47:12;323.02;;;47.92;;
78122;SDS011;67376;44.802;10.332;2023-06-14T11:49:38;321.85;;;47.67;;
78122;SDS011;67376;44.802;10.332;2023-06-14T11:52:03;321.55;;;47.92;;
78122;SDS011;67376;44.802;10.332;2023-06-14T11:54:31;322.48;;;47.88;;
78122;SDS011;67376;44.802;10.332;2023-06-14T11:56:57;321.40;;;47.83;;
78122;SDS011;67376;44.802;10.332;2023-06-14T11:59:23;320.38;;;47.58;;
78122;SDS011;67376;44.802;10.332;2023-06-14T12:01:49;321.30;;;47.55;;
78122;SDS011;67376;44.802;10.332;2023-06-14T12:04:22;319.58;;;47.47;;
78122;SDS011;67376;44.802;10.332;2023-06-14T12:06:50;320.50;;;48.15;;
78122;SDS011;67376;44.802;10.332;2023-06-14T12:09:18;321.40;;;48.25;;
78122;SDS011;67376;44.802;10.332;2023-06-14T12:11:44;321.05;;;47.83;;
78122;SDS011;67376;44.802;10.332;2023-06-14T12:14:10;319.55;;;48.05;;
78122;SDS011;67376;44.802;10.332;2023-06-14T12:16:37;321.42;;;48.05;;
78122;SDS011;67376;44.802;10.332;2023-06-14T12:19:14;322.35;;;48.00;;
78122;SDS011;67376;44.802;10.332;2023-06-14T12:21:41;320.55;;;48.15;;
78122;SDS011;67376;44.802;10.332;2023-06-14T12:24:08;320.55;;;48.45;;
78122;SDS011;67376;44.802;10.332;2023-06-14T12:26:39;320.25;;;47.85;;
78122;SDS011;67376;44.802;10.332;2023-06-14T12:29:08;321.98;;;48.25;;
78122;SDS011;67376;44.802;10.332;2023-06-14T12:31:34;323.77;;;47.85;;
78122;SDS011;67376;44.802;10.332;2023-06-14T12:33:59;321.63;;;47.53;;
78122;SDS011;67376;44.802;10.332;2023-06-14T12:36:25;322.48;;;48.90;;
78122;SDS011;67376;44.802;10.332;2023-06-14T12:38:51;321.35;;;47.95;;
78122;SDS011;67376;44.802;10.332;2023-06-14T12:41:18;320.25;;;47.38;;
78122;SDS011;67376;44.802;10.332;2023-06-14T12:43:46;324.30;;;48.22;;
78122;SDS011;67376;44.802;10.332;2023-06-14T12:46:11;324.02;;;48.53;;
78122;SDS011;67376;44.802;10.332;2023-06-14T12:48:37;325.15;;;48.55;;
78122;SDS011;67376;44.802;10.332;2023-06-14T12:51:02;323.88;;;48.55;;
78122;SDS011;67376;44.802;10.332;2023-06-14T12:53:28;320.70;;;48.10;;
78122;SDS011;67376;44.802;10.332;2023-06-14T12:55:53;320.52;;;47.53;;
78122;SDS011;67376;44.802;10.332;2023-06-14T12:58:18;319.92;;;47.83;;
78122;SDS011;67376;44.802;10.332;2023-06-14T13:00:44;319.83;;;48.13;;
78122;SDS011;67376;44.802;10.332;2023-06-14T13:03:11;316.88;;;49.00;;
78122;SDS011;67376;44.802;10.332;2023-06-14T13:05:36;320.83;;;47.78;;
78122;SDS011;67376;44.802;10.332;2023-06-14T13:08:02;322.02;;;48.13;;
78122;SDS011;67376;44.802;10.332;2023-06-14T13:10:28;321.75;;;47.80;;
78122;SDS011;67376;44.802;10.332;2023-06-14T13:12:53;321.23;;;47.88;;
78122;SDS011;67376;44.802;10.332;2023-06-14T13:15:18;320.02;;;47.75;;
78122;SDS011;67376;44.802;10.332;2023-06-14T13:17:44;319.02;;;48.08;;
78122;SDS011;67376;44.802;10.332;2023-06-14T13:20:13;318.05;;;48.47;;
78122;SDS011;67376;44.802;10.332;2023-06-14T13:22:39;317.75;;;48.13;;
78122;SDS011;67376;44.802;10.332;2023-06-14T13:25:05;316.70;;;48.10;;
78122;SDS011;67376;44.802;10.332;2023-06-14T13:27:31;318.50;;;48.35;;
78122;SDS011;67376;44.802;10.332;2023-06-14T13:29:56;314.95;;;47.70;;
78122;SDS011;67376;44.802;10.332;2023-06-14T13:32:22;314.10;;;47.95;;
78122;SDS011;67376;44.802;10.332;2023-06-14T13:34:48;313.50;;;47.95;;
78122;SDS011;67376;44.802;10.332;2023-06-14T13:37:13;312.92;;;48.30;;
78122;SDS011;67376;44.802;10.332;2023-06-14T13:39:39;312.98;;;49.10;;
78122;SDS011;67376;44.802;10.332;2023-06-14T13:42:05;312.15;;;48.03;;
78122;SDS011;67376;44.802;10.332;2023-06-14T13:44:30;310.95;;;48.10;;
78122;SDS011;67376;44.802;10.332;2023-06-14T13:46:56;310.38;;;48.40;;
78122;SDS011;67376;44.802;10.332;2023-06-14T13:49:21;309.58;;;48.35;;
78122;SDS011;67376;44.802;10.332;2023-06-14T13:51:47;307.90;;;47.97;;
78122;SDS011;67376;44.802;10.332;2023-06-14T13:54:13;307.75;;;48.33;;
78122;SDS011;67376;44.802;10.332;2023-06-14T13:56:40;305.17;;;48.95;;
78122;SDS011;67376;44.802;10.332;2023-06-14T13:59:05;302.33;;;48.42;;
78122;SDS011;67376;44.802;10.332;2023-06-14T14:01:30;298.63;;;48.13;;
78122;SDS011;67376;44.802;10.332;2023-06-14T14:03:56;298.55;;;48.42;;
78122;SDS011;67376;44.802;10.332;2023-06-14T14:06:23;294.98;;;48.25;;
78122;SDS011;67376;44.802;10.332;2023-06-14T14:08:49;293.83;;;47.67;;
78122;SDS011;67376;44.802;10.332;2023-06-14T14:11:14;290.65;;;47.50;;